createdAt,value
2022-08-03T00:02:35.816Z,19.82
2022-08-03T00:05:38.618Z,19.81
2022-08-03T00:08:43.146Z,19.76
2022-08-03T00:11:46.177Z,19.74
2022-08-03T00:14:49.545Z,19.69
2022-08-03T00:17:54.105Z,19.66
2022-08-03T00:20:57.659Z,19.62
2022-08-03T00:24:02.151Z,19.60
2022-08-03T00:27:05.043Z,19.56
2022-08-03T00:30:09.041Z,19.51
2022-08-03T00:33:12.105Z,19.40
2022-08-03T00:36:16.604Z,19.44
2022-08-03T00:39:20.869Z,19.41
2022-08-03T00:42:23.566Z,19.38
2022-08-03T00:45:34.199Z,19.35
2022-08-03T00:48:36.983Z,19.19
2022-08-03T00:51:39.827Z,19.25
2022-08-03T00:54:44.209Z,19.24
2022-08-03T00:57:47.907Z,19.18
2022-08-03T01:00:51.217Z,19.14
2022-08-03T01:03:54.017Z,19.10
2022-08-03T01:07:04.544Z,19.02
2022-08-03T01:10:23.016Z,18.95
2022-08-03T01:13:30.761Z,18.91
2022-08-03T01:17:00.540Z,18.88
2022-08-03T01:20:07.880Z,18.85
2022-08-03T01:23:36.243Z,18.76
2022-08-03T01:27:05.055Z,18.70
2022-08-03T01:30:12.123Z,18.71
2022-08-03T01:33:19.913Z,18.64
2022-08-03T01:36:26.140Z,18.56
2022-08-03T01:39:31.751Z,18.64
2022-08-03T01:42:37.624Z,18.63
2022-08-03T01:45:43.162Z,18.63
2022-08-03T01:48:49.010Z,18.61
2022-08-03T01:52:03.210Z,18.58
2022-08-03T01:55:09.627Z,18.55
2022-08-03T01:58:15.446Z,18.54
2022-08-03T02:01:21.756Z,18.51
2022-08-03T02:04:26.626Z,18.47
2022-08-03T02:07:31.476Z,18.42
2022-08-03T02:10:36.329Z,18.41
2022-08-03T02:13:40.579Z,18.38
2022-08-03T02:16:46.449Z,18.35
2022-08-03T02:19:52.299Z,18.29
2022-08-03T02:22:55.602Z,18.25
2022-08-03T02:26:02.094Z,18.21
2022-08-03T02:29:12.447Z,18.19
2022-08-03T02:32:22.089Z,18.18
2022-08-03T02:35:29.717Z,18.15
2022-08-03T02:38:35.397Z,18.11
2022-08-03T02:41:44.606Z,18.08
2022-08-03T02:44:51.088Z,18.04
2022-08-03T02:47:59.653Z,18.01
2022-08-03T02:51:04.928Z,17.97
2022-08-03T02:54:10.414Z,17.93
2022-08-03T02:57:15.373Z,17.92
2022-08-03T03:00:27.253Z,17.88
2022-08-03T03:03:35.272Z,17.82
2022-08-03T03:06:43.964Z,17.73
2022-08-03T03:09:50.618Z,17.74
2022-08-03T03:12:57.266Z,17.73
2022-08-03T03:16:01.864Z,17.69
2022-08-03T03:19:06.480Z,17.68
2022-08-03T03:22:10.170Z,17.66
2022-08-03T03:25:13.244Z,17.46
2022-08-03T03:28:16.490Z,17.63
2022-08-03T03:31:19.270Z,17.63
2022-08-03T03:34:23.929Z,17.60
2022-08-03T03:37:28.195Z,17.60
2022-08-03T03:40:31.369Z,17.60
2022-08-03T03:43:34.897Z,17.57
2022-08-03T03:46:38.761Z,17.55
2022-08-03T03:49:43.214Z,17.51
2022-08-03T03:52:46.153Z,17.42
2022-08-03T03:56:02.349Z,17.44
2022-08-03T03:59:05.738Z,17.44
2022-08-03T04:02:10.107Z,17.42
2022-08-03T04:05:32.043Z,17.39
2022-08-03T04:08:52.409Z,17.39
2022-08-03T04:11:59.736Z,17.43
2022-08-03T04:15:04.837Z,17.43
2022-08-03T04:18:10.373Z,17.39
2022-08-03T04:21:16.214Z,17.42
2022-08-03T04:24:21.893Z,17.43
2022-08-03T04:27:34.419Z,17.44
2022-08-03T04:30:47.527Z,17.49
2022-08-03T04:33:52.721Z,17.49
2022-08-03T04:37:01.399Z,17.50
2022-08-03T04:40:09.845Z,17.52
2022-08-03T04:43:16.412Z,17.54
2022-08-03T04:46:20.706Z,17.53
2022-08-03T04:49:24.166Z,17.52
2022-08-03T04:52:28.663Z,17.54
2022-08-03T04:55:33.301Z,17.57
2022-08-03T04:58:36.658Z,17.59
2022-08-03T05:01:40.889Z,17.65
2022-08-03T05:04:46.497Z,17.70
2022-08-03T05:07:51.081Z,17.73
2022-08-03T05:10:53.807Z,17.78
2022-08-03T05:13:56.683Z,17.87
2022-08-03T05:16:59.453Z,18.22
2022-08-03T05:20:03.960Z,18.99
2022-08-03T05:23:08.052Z,19.22
2022-08-03T05:26:11.791Z,19.15
2022-08-03T05:29:14.484Z,18.96
2022-08-03T05:32:18.071Z,18.75
2022-08-03T05:36:01.805Z,18.75
2022-08-03T05:38:45.131Z,18.71
2022-08-03T05:41:48.112Z,18.73
2022-08-03T05:44:51.172Z,18.95
2022-08-03T05:47:54.232Z,18.92
2022-08-03T05:50:56.946Z,19.50
2022-08-03T05:54:01.002Z,20.56
2022-08-03T05:57:03.737Z,21.43
2022-08-03T06:00:08.920Z,21.99
2022-08-03T06:03:12.811Z,22.43
2022-08-03T06:06:15.858Z,22.83
2022-08-03T06:09:20.046Z,23.13
2022-08-03T06:12:22.777Z,23.42
2022-08-03T06:15:25.710Z,23.52
2022-08-03T06:18:36.223Z,23.71
2022-08-03T06:21:41.728Z,23.86
2022-08-03T06:24:53.589Z,24.11
2022-08-03T06:27:57.870Z,24.25
2022-08-03T06:31:04.370Z,24.51
2022-08-03T06:34:33.268Z,24.58
2022-08-03T06:37:33.806Z,24.47
2022-08-03T06:40:40.185Z,24.31
2022-08-03T06:44:03.904Z,24.27
2022-08-03T06:47:07.308Z,24.43
2022-08-03T06:50:12.730Z,24.63
2022-08-03T06:53:21.502Z,24.70
2022-08-03T06:56:25.851Z,24.64
2022-08-03T07:00:09.499Z,24.73
2022-08-03T07:02:56.140Z,24.86
2022-08-03T07:06:00.839Z,25.07
2022-08-03T07:09:03.971Z,25.20
2022-08-03T07:12:08.595Z,25.31
2022-08-03T07:15:20.559Z,25.40
2022-08-03T07:18:35.296Z,25.47
2022-08-03T07:21:38.010Z,25.53
2022-08-03T07:24:41.919Z,25.68
2022-08-03T07:27:51.400Z,25.81
2022-08-03T07:30:54.885Z,25.90
2022-08-03T07:33:57.636Z,26.00
2022-08-03T07:37:00.859Z,25.94
2022-08-03T07:40:05.223Z,25.93
2022-08-03T07:43:09.480Z,25.92
2022-08-03T07:46:12.453Z,26.01
2022-08-03T07:49:15.445Z,26.04
2022-08-03T07:52:36.340Z,26.13
2022-08-03T07:55:39.669Z,26.18
2022-08-03T07:58:43.896Z,26.28
2022-08-03T08:01:46.625Z,26.40
2022-08-03T08:04:49.589Z,26.44
2022-08-03T08:07:52.444Z,26.38
2022-08-03T08:10:58.013Z,26.31
2022-08-03T08:14:03.893Z,26.03
2022-08-03T08:17:07.482Z,25.80
2022-08-03T08:20:11.753Z,25.53
2022-08-03T08:23:42.799Z,25.30
2022-08-03T08:26:37.815Z,25.24
2022-08-03T08:29:47.630Z,25.28
2022-08-03T08:32:55.983Z,25.36
2022-08-03T08:35:58.731Z,25.47
2022-08-03T08:39:01.493Z,25.58
2022-08-03T08:42:04.515Z,25.58
2022-08-03T08:45:10.041Z,25.70
2022-08-03T08:48:14.910Z,25.77
2022-08-03T08:51:19.561Z,25.73
2022-08-03T08:54:23.495Z,25.99
2022-08-03T08:57:42.844Z,26.05
2022-08-03T09:00:48.494Z,26.29
2022-08-03T09:03:51.900Z,26.44
2022-08-03T09:07:18.810Z,26.55
2022-08-03T09:10:22.002Z,26.72
2022-08-03T09:13:24.834Z,26.84
2022-08-03T09:16:29.096Z,26.91
2022-08-03T09:19:33.805Z,27.04
2022-08-03T09:22:37.030Z,27.16
2022-08-03T09:25:42.296Z,27.28
2022-08-03T09:29:00.661Z,27.44
2022-08-03T09:32:08.938Z,27.62
2022-08-03T09:35:12.827Z,27.68
2022-08-03T09:38:18.103Z,27.82
2022-08-03T09:41:20.921Z,27.99
2022-08-03T09:44:35.844Z,28.08
2022-08-03T09:47:45.005Z,28.21
2022-08-03T09:50:58.421Z,28.35
2022-08-03T09:54:20.301Z,28.46
2022-08-03T09:57:24.189Z,28.61
2022-08-03T10:00:27.079Z,28.76
2022-08-03T10:03:35.042Z,28.83
2022-08-03T10:06:37.973Z,28.95
2022-08-03T10:09:54.658Z,29.04
2022-08-03T10:12:57.850Z,29.15
2022-08-03T10:16:21.277Z,29.30
2022-08-03T10:19:25.672Z,29.44
2022-08-03T10:22:30.801Z,29.36
2022-08-03T10:25:35.825Z,29.58
2022-08-03T10:28:45.517Z,29.65
2022-08-03T10:31:57.568Z,29.72
2022-08-03T10:35:19.095Z,29.84
2022-08-03T10:38:30.403Z,29.95
2022-08-03T10:41:37.353Z,30.06
2022-08-03T10:44:42.099Z,30.22
2022-08-03T10:47:45.753Z,30.32
2022-08-03T10:50:51.609Z,30.36
2022-08-03T10:53:55.701Z,30.42
2022-08-03T10:57:16.456Z,30.51
2022-08-03T11:00:22.337Z,30.57
2022-08-03T11:03:25.106Z,30.63
2022-08-03T11:06:37.562Z,30.60
2022-08-03T11:09:43.333Z,30.60
2022-08-03T11:12:47.336Z,30.71
2022-08-03T11:16:01.610Z,30.82
2022-08-03T11:19:07.245Z,30.73
2022-08-03T11:22:12.316Z,30.89
2022-08-03T11:25:53.598Z,30.98
2022-08-03T11:28:40.879Z,31.11
2022-08-03T11:31:50.324Z,31.19
2022-08-03T11:35:09.102Z,31.29
2022-08-03T11:38:13.470Z,31.39
2022-08-03T11:41:34.275Z,31.54
2022-08-03T11:44:47.897Z,31.58
2022-08-03T11:47:54.887Z,31.58
2022-08-03T11:50:58.558Z,31.59
2022-08-03T11:54:05.322Z,31.68
2022-08-03T11:57:08.253Z,31.76
2022-08-03T12:00:22.745Z,31.77
2022-08-03T12:03:25.500Z,31.84
2022-08-03T12:06:28.332Z,31.94
2022-08-03T12:09:36.336Z,31.99
2022-08-03T12:12:44.506Z,32.10
2022-08-03T12:15:53.501Z,32.17
2022-08-03T12:19:01.541Z,32.17
2022-08-03T12:22:04.456Z,32.21
2022-08-03T12:25:10.837Z,32.34
2022-08-03T12:28:35.977Z,32.40
2022-08-03T12:31:41.049Z,32.44
2022-08-03T12:34:47.836Z,32.47
2022-08-03T12:37:50.779Z,32.51
2022-08-03T12:41:14.647Z,32.58
2022-08-03T12:44:17.430Z,32.64
2022-08-03T12:47:20.400Z,32.60
2022-08-03T12:50:28.668Z,32.64
2022-08-03T12:53:39.016Z,32.67
2022-08-03T12:57:01.586Z,32.73
2022-08-03T13:00:13.059Z,32.82
2022-08-03T13:03:38.975Z,32.88
2022-08-03T13:06:42.948Z,32.89
2022-08-03T13:09:47.973Z,32.77
2022-08-03T13:12:52.760Z,32.93
2022-08-03T13:15:55.480Z,33.05
2022-08-03T13:18:58.189Z,33.20
2022-08-03T13:22:04.329Z,33.28
2022-08-03T13:25:08.866Z,33.35
2022-08-03T13:28:14.440Z,33.42
2022-08-03T13:31:17.487Z,33.45
2022-08-03T13:34:23.892Z,33.51
2022-08-03T13:37:27.257Z,33.61
2022-08-03T13:41:05.278Z,33.46
2022-08-03T13:44:32.616Z,32.97
2022-08-03T13:48:16.822Z,33.60
2022-08-03T13:51:54.636Z,33.74
2022-08-03T13:54:57.818Z,33.79
2022-08-03T13:58:11.928Z,33.83
2022-08-03T14:01:16.381Z,33.89
2022-08-03T14:04:21.839Z,33.79
2022-08-03T14:07:25.306Z,33.62
2022-08-03T14:10:28.020Z,33.57
2022-08-03T14:13:30.743Z,33.62
2022-08-03T14:16:34.877Z,33.74
2022-08-03T14:19:44.896Z,33.82
2022-08-03T14:22:57.021Z,33.78
2022-08-03T14:25:59.767Z,33.80
2022-08-03T14:29:02.883Z,33.82
2022-08-03T14:32:11.664Z,33.84
2022-08-03T14:35:15.595Z,33.94
2022-08-03T14:38:19.221Z,34.03
2022-08-03T14:41:22.076Z,34.11
2022-08-03T14:44:24.793Z,34.02
2022-08-03T14:47:28.885Z,34.06
2022-08-03T14:50:41.960Z,34.16
2022-08-03T14:53:46.663Z,34.25
2022-08-03T14:56:49.373Z,34.28
2022-08-03T14:59:55.538Z,34.28
2022-08-03T15:03:01.989Z,34.33
2022-08-03T15:06:05.039Z,34.39
2022-08-03T15:09:21.106Z,34.41
2022-08-03T15:12:26.098Z,34.45
2022-08-03T15:15:29.306Z,34.46
2022-08-03T15:18:33.747Z,34.41
2022-08-03T15:21:46.545Z,34.37
2022-08-03T15:24:50.829Z,34.31
2022-08-03T15:28:04.035Z,34.22
2022-08-03T15:31:08.134Z,34.19
2022-08-03T15:34:13.083Z,34.21
2022-08-03T15:37:16.720Z,34.08
2022-08-03T15:40:22.645Z,34.13
2022-08-03T15:43:31.912Z,34.07
2022-08-03T15:46:38.923Z,34.07
2022-08-03T15:49:49.990Z,34.06
2022-08-03T15:52:56.026Z,34.05
2022-08-03T15:56:11.409Z,34.09
2022-08-03T15:59:17.272Z,34.05
2022-08-03T16:02:20.309Z,34.00
2022-08-03T16:05:24.556Z,33.95
2022-08-03T16:08:27.427Z,33.89
2022-08-03T16:11:30.631Z,33.86
2022-08-03T16:14:42.198Z,33.84
2022-08-03T16:17:53.746Z,33.85
2022-08-03T16:20:58.189Z,33.83
2022-08-03T16:24:02.125Z,33.80
2022-08-03T16:27:17.467Z,33.75
2022-08-03T16:30:31.320Z,33.64
2022-08-03T16:33:36.120Z,33.57
2022-08-03T16:36:40.387Z,33.46
2022-08-03T16:39:43.101Z,33.38
2022-08-03T16:42:45.846Z,33.32
2022-08-03T16:45:49.282Z,33.25
2022-08-03T16:48:52.397Z,33.19
2022-08-03T16:51:56.614Z,33.09
2022-08-03T16:55:02.205Z,33.01
2022-08-03T16:58:07.472Z,32.99
2022-08-03T17:01:22.377Z,33.02
2022-08-03T17:04:28.360Z,33.02
2022-08-03T17:07:33.275Z,32.91
2022-08-03T17:10:35.952Z,32.79
2022-08-03T17:13:40.323Z,32.72
2022-08-03T17:16:52.571Z,32.64
2022-08-03T17:19:58.633Z,32.53
2022-08-03T17:23:19.202Z,32.38
2022-08-03T17:26:38.443Z,32.26
2022-08-03T17:29:48.402Z,31.81
2022-08-03T17:32:52.659Z,31.99
2022-08-03T17:36:01.829Z,31.86
2022-08-03T17:39:06.953Z,31.77
2022-08-03T17:42:31.217Z,31.66
2022-08-03T17:45:42.301Z,31.53
2022-08-03T17:48:58.908Z,31.37
2022-08-03T17:52:04.036Z,31.24
2022-08-03T17:55:55.229Z,31.04
2022-08-03T17:58:53.534Z,30.78
2022-08-03T18:02:29.777Z,30.61
2022-08-03T18:06:11.718Z,30.42
2022-08-03T18:09:05.074Z,30.29
2022-08-03T18:12:29.445Z,30.21
2022-08-03T18:15:38.738Z,30.15
2022-08-03T18:18:44.049Z,30.07
2022-08-03T18:22:02.920Z,29.99
2022-08-03T18:25:09.300Z,29.88
2022-08-03T18:28:18.875Z,29.70
2022-08-03T18:32:00.267Z,29.52
2022-08-03T18:34:53.674Z,29.41
2022-08-03T18:37:59.108Z,29.32
2022-08-03T18:41:12.712Z,29.19
2022-08-03T18:44:53.410Z,28.91
2022-08-03T18:48:05.102Z,28.96
2022-08-03T18:51:11.964Z,28.86
2022-08-03T18:54:59.037Z,28.77
2022-08-03T18:58:18.197Z,28.66
2022-08-03T19:02:00.639Z,28.60
2022-08-03T19:04:55.453Z,28.47
2022-08-03T19:08:06.164Z,28.37
2022-08-03T19:11:28.243Z,28.27
2022-08-03T19:14:41.636Z,28.16
2022-08-03T19:17:50.264Z,28.03
2022-08-03T19:20:58.043Z,27.92
2022-08-03T19:27:27.286Z,27.79
2022-08-03T19:30:38.724Z,27.71
2022-08-03T19:33:57.472Z,27.66
2022-08-03T19:37:01.590Z,27.61
2022-08-03T19:40:06.072Z,27.54
2022-08-03T19:43:21.581Z,27.48
2022-08-03T19:46:27.635Z,27.44
2022-08-03T19:50:06.167Z,27.35
2022-08-03T19:53:04.792Z,27.20
2022-08-03T19:56:11.187Z,27.15
2022-08-03T19:59:14.836Z,27.09
2022-08-03T20:02:27.212Z,27.03
2022-08-03T20:05:45.100Z,26.98
2022-08-03T20:08:54.939Z,26.89
2022-08-03T20:11:57.877Z,26.83
2022-08-03T20:15:01.411Z,26.74
2022-08-03T20:18:04.575Z,26.68
2022-08-03T20:21:14.814Z,26.60
2022-08-03T20:24:24.355Z,26.53
2022-08-03T20:27:30.282Z,26.46
2022-08-03T20:30:34.195Z,26.40
2022-08-03T20:33:46.293Z,26.31
2022-08-03T20:36:53.110Z,26.20
2022-08-03T20:39:55.872Z,26.09
2022-08-03T20:42:59.782Z,26.00
2022-08-03T20:49:27.864Z,25.87
2022-08-03T20:52:32.772Z,25.82
2022-08-03T20:55:47.783Z,25.79
2022-08-03T20:58:59.273Z,25.75
2022-08-03T21:02:03.569Z,25.69
2022-08-03T21:05:09.217Z,25.64
2022-08-03T21:08:15.892Z,25.58
2022-08-03T21:11:20.159Z,25.53
2022-08-03T21:13:09.132Z,27.87
2022-08-03T21:13:13.491Z,25.95
2022-08-03T21:14:28.911Z,25.44
2022-08-03T21:17:42.003Z,25.41
2022-08-03T21:20:47.692Z,25.31
2022-08-03T21:23:53.208Z,25.24
2022-08-03T21:26:56.041Z,25.20
2022-08-03T21:29:59.870Z,25.17
2022-08-03T21:33:02.716Z,25.12
2022-08-03T21:36:06.706Z,25.06
2022-08-03T21:39:12.158Z,25.02
2022-08-03T21:42:15.548Z,24.97
2022-08-03T21:45:18.439Z,24.91
2022-08-03T21:48:25.228Z,24.86
2022-08-03T21:51:31.235Z,24.81
2022-08-03T21:54:38.838Z,24.78
2022-08-03T21:57:46.172Z,24.73
2022-08-03T22:00:49.104Z,24.69
2022-08-03T22:03:54.273Z,24.63
2022-08-03T22:06:57.867Z,24.57
2022-08-03T22:10:04.700Z,24.52
2022-08-03T22:13:07.533Z,24.46
2022-08-03T22:16:10.697Z,24.43
2022-08-03T22:19:13.556Z,24.37
2022-08-03T22:22:18.953Z,24.30
2022-08-03T22:25:29.463Z,24.24
2022-08-03T22:28:33.210Z,24.20
2022-08-03T22:31:58.068Z,24.12
2022-08-03T22:35:01.020Z,24.05
2022-08-03T22:38:07.908Z,23.91
2022-08-03T22:41:12.151Z,23.84
2022-08-03T22:44:14.982Z,23.76
2022-08-03T22:47:22.439Z,23.73
2022-08-03T22:50:31.968Z,23.66
2022-08-03T22:53:37.256Z,23.58
2022-08-03T22:56:41.904Z,23.55
2022-08-03T22:59:47.317Z,23.55
2022-08-03T23:02:52.071Z,23.53
2022-08-03T23:06:02.022Z,23.51
2022-08-03T23:09:09.536Z,23.41
2022-08-03T23:12:16.272Z,23.35
2022-08-03T23:15:19.610Z,23.28
2022-08-03T23:18:23.553Z,23.26
2022-08-03T23:21:53.705Z,23.23
2022-08-03T23:24:50.961Z,23.17
2022-08-03T23:28:05.421Z,23.11
2022-08-03T23:31:10.077Z,23.07
2022-08-03T23:34:33.044Z,23.04
2022-08-03T23:38:04.739Z,23.00
2022-08-03T23:41:00.545Z,22.98
2022-08-03T23:44:05.565Z,22.90
2022-08-03T23:47:08.297Z,22.92
2022-08-03T23:50:11.005Z,22.90
2022-08-03T23:53:19.364Z,22.85
2022-08-03T23:56:28.761Z,22.82
2022-08-03T23:59:41.609Z,22.79
